Time;durP1;ratioP1;P1;durP2;ratioP2;P2;SDS_P1;SDS_P2;PMS_P1;PMS_P2;Temp;Humidity;BMP_temperature;BMP_pressure;BME280_temperature;BME280_humidity;BME280_pressure;Samples;Min_cycle;Max_cycle;Signal;HPM_P1;HPM_P2
2021/01/31 00:00:18;;;;;;;4.50;3.27;;;;;;;-4.93;75.01;99893.72;5075492;28;20200;-72
2021/01/31 00:02:44;;;;;;;5.53;3.53;;;;;;;-4.97;75.30;99892.00;5074876;28;20155;-72
2021/01/31 00:05:10;;;;;;;7.53;3.80;;;;;;;-5.03;75.86;99884.25;5076246;28;20412;-72
2021/01/31 00:07:36;;;;;;;4.83;3.50;;;;;;;-5.06;76.24;99892.06;5075535;28;20199;-71
2021/01/31 00:10:01;;;;;;;5.53;3.70;;;;;;;-5.12;76.47;99892.09;5076188;28;20408;-71
2021/01/31 00:12:26;;;;;;;4.97;3.70;;;;;;;-5.17;76.96;99889.53;5074032;28;20186;-70
2021/01/31 00:14:52;;;;;;;5.47;3.70;;;;;;;-5.14;77.59;99901.66;5074609;28;20172;-71
2021/01/31 00:17:17;;;;;;;6.93;3.80;;;;;;;-5.16;77.23;99896.44;5075393;28;20199;-71
2021/01/31 00:19:42;;;;;;;5.43;3.93;;;;;;;-5.15;77.79;99894.72;5074246;28;20253;-71
2021/01/31 00:22:08;;;;;;;6.30;3.87;;;;;;;-5.18;78.10;99894.72;5072815;28;20179;-70
2021/01/31 00:24:33;;;;;;;6.63;4.07;;;;;;;-5.21;77.71;99892.09;5071875;28;20179;-70
2021/01/31 00:26:59;;;;;;;6.07;3.73;;;;;;;-5.25;78.69;99887.78;5072160;28;20195;-70
2021/01/31 00:29:25;;;;;;;5.73;3.80;;;;;;;-5.24;78.45;99893.00;5070948;28;20171;-72
2021/01/31 00:31:51;;;;;;;6.27;4.07;;;;;;;-5.18;78.82;99886.94;5070476;28;20285;-71
2021/01/31 00:34:20;;;;;;;7.00;4.70;;;;;;;-5.17;78.76;99883.44;5073022;28;20172;-72
2021/01/31 00:36:46;;;;;;;6.63;4.63;;;;;;;-5.22;78.44;99877.38;5073805;28;20211;-71
2021/01/31 00:39:12;;;;;;;4.87;3.73;;;;;;;-5.25;79.01;99885.19;5073926;28;20408;-72
2021/01/31 00:41:38;;;;;;;5.33;3.50;;;;;;;-5.29;79.15;99889.53;5072549;28;20417;-72
2021/01/31 00:44:05;;;;;;;6.17;3.70;;;;;;;-5.25;78.81;99886.06;5072147;28;20489;-72
2021/01/31 00:46:35;;;;;;;5.30;3.70;;;;;;;-5.25;78.76;99885.19;5072225;28;20212;-72
2021/01/31 00:49:01;;;;;;;6.77;4.20;;;;;;;-5.31;79.17;99880.03;5072304;28;20435;-71
2021/01/31 00:51:26;;;;;;;7.47;4.60;;;;;;;-5.33;79.21;99881.75;5073632;28;20490;-72
2021/01/31 00:53:52;;;;;;;7.70;4.70;;;;;;;-5.35;79.61;99877.44;5072877;28;20180;-72
2021/01/31 00:56:17;;;;;;;7.90;4.60;;;;;;;-5.30;80.03;99877.41;5072095;28;20203;-72
2021/01/31 00:58:44;;;;;;;8.70;4.77;;;;;;;-5.24;79.88;99873.91;5072250;28;20234;-72
2021/01/31 01:01:09;;;;;;;6.77;4.30;;;;;;;-5.26;79.60;99879.13;5063632;28;20195;-72
2021/01/31 01:03:34;;;;;;;6.17;4.20;;;;;;;-5.26;79.45;99881.72;5054535;28;20477;-71
2021/01/31 01:06:00;;;;;;;6.93;4.47;;;;;;;-5.26;79.44;99878.25;5054436;28;20175;-71
2021/01/31 01:08:25;;;;;;;7.27;4.70;;;;;;;-5.25;79.27;99885.19;5054179;28;20567;-71
2021/01/31 01:10:50;;;;;;;6.90;5.10;;;;;;;-5.30;80.20;99879.16;5054424;28;20210;-71
2021/01/31 01:13:16;;;;;;;6.40;4.50;;;;;;;-5.38;80.31;99880.06;5052603;28;20177;-71
2021/01/31 01:15:41;;;;;;;7.03;4.20;;;;;;;-5.39;80.82;99883.53;5054350;28;20180;-72
2021/01/31 01:18:06;;;;;;;6.10;4.23;;;;;;;-5.38;80.99;99890.44;5053010;28;20196;-71
2021/01/31 01:20:31;;;;;;;7.83;4.50;;;;;;;-5.41;80.77;99882.66;5053120;28;20196;-71
2021/01/31 01:22:57;;;;;;;10.00;4.97;;;;;;;-5.37;80.88;99897.38;5052919;28;20642;-72
2021/01/31 01:25:23;;;;;;;7.37;4.60;;;;;;;-5.35;80.93;99890.44;5053913;28;20171;-72
2021/01/31 01:27:48;;;;;;;7.67;5.17;;;;;;;-5.27;80.41;99895.59;5052537;28;20241;-71
2021/01/31 01:30:17;;;;;;;7.30;5.20;;;;;;;-5.19;79.93;99891.25;5053907;28;20768;-72
2021/01/31 01:32:42;;;;;;;6.97;4.47;;;;;;;-5.10;79.35;99886.00;5035844;28;20172;-71
2021/01/31 01:35:08;;;;;;;7.03;4.20;;;;;;;-4.97;78.92;99884.19;5052610;28;20480;-71
2021/01/31 01:37:34;;;;;;;6.40;4.47;;;;;;;-4.88;78.43;99891.09;5052312;28;20203;-71
2021/01/31 01:40:00;;;;;;;6.50;4.07;;;;;;;-4.89;77.85;99895.44;5035903;28;20493;-72
2021/01/31 01:42:25;;;;;;;8.63;4.77;;;;;;;-4.84;78.02;99887.59;5052474;28;20273;-72
2021/01/31 01:44:50;;;;;;;6.67;4.90;;;;;;;-4.78;78.01;99882.38;5053713;28;20180;-72
2021/01/31 01:47:19;;;;;;;7.87;5.13;;;;;;;-4.66;77.53;99886.63;5053149;28;20203;-72
2021/01/31 01:49:48;;;;;;;7.77;4.53;;;;;;;-4.72;77.74;99896.22;5052140;28;20246;-71
2021/01/31 01:52:32;;;;;;;6.13;4.10;;;;;;;-4.79;77.95;99894.53;5052267;28;20563;-71
2021/01/31 01:55:10;;;;;;;9.20;4.90;;;;;;;-4.72;77.69;99887.53;5052605;28;20883;-72
2021/01/31 01:57:43;;;;;;;7.50;4.83;;;;;;;-4.82;78.15;99886.75;5035359;28;20448;-72
2021/01/31 02:00:09;;;;;;;9.83;5.10;;;;;;;-4.71;78.24;99886.66;5053252;28;20456;-72
2021/01/31 02:02:40;;;;;;;6.37;4.60;;;;;;;-4.66;77.71;99892.69;5035426;28;20421;-69
2021/01/31 02:05:09;;;;;;;6.33;4.40;;;;;;;-4.61;77.33;99879.66;5052107;28;20218;-71
2021/01/31 02:07:35;;;;;;;6.67;4.70;;;;;;;-4.59;76.92;99883.09;5051995;28;20451;-70
2021/01/31 02:10:03;;;;;;;7.37;4.10;;;;;;;-4.60;76.91;99882.25;5053876;28;20404;-71
2021/01/31 02:12:29;;;;;;;6.33;4.50;;;;;;;-4.68;76.90;99885.78;5052151;28;20283;-71
2021/01/31 02:15:00;;;;;;;7.47;4.80;;;;;;;-4.78;77.13;99878.03;5052241;28;20412;-70
2021/01/31 02:17:46;;;;;;;6.83;4.70;;;;;;;-4.70;77.69;99879.72;5052013;28;20425;-70
2021/01/31 02:20:30;;;;;;;7.97;4.53;;;;;;;-4.69;77.46;99881.44;5053089;28;20797;-70
2021/01/31 02:23:23;;;;;;;8.87;4.80;;;;;;;-4.68;77.62;99878.84;5035330;28;20496;-72
2021/01/31 02:26:11;;;;;;;7.63;5.03;;;;;;;-4.73;77.49;99878.88;5053729;28;20409;-71
2021/01/31 02:28:54;;;;;;;6.30;4.50;;;;;;;-4.67;78.20;99879.69;5056099;28;20942;-71
2021/01/31 02:31:46;;;;;;;7.13;4.77;;;;;;;-4.63;77.52;99881.41;5059454;28;20411;-71
2021/01/31 02:34:31;;;;;;;7.67;4.83;;;;;;;-4.58;77.15;99882.22;5056859;28;20400;-72
2021/01/31 02:37:17;;;;;;;7.37;4.83;;;;;;;-4.51;77.10;99876.97;5056225;28;20439;-71
2021/01/31 02:39:56;;;;;;;6.07;4.17;;;;;;;-4.48;76.71;99878.69;5056149;28;20480;-71
2021/01/31 02:42:30;;;;;;;7.50;5.03;;;;;;;-4.53;77.07;99878.72;5055696;28;20384;-71
2021/01/31 02:45:04;;;;;;;9.50;5.03;;;;;;;-4.47;76.45;99872.59;5056046;28;20446;-72
2021/01/31 02:47:31;;;;;;;6.50;4.47;;;;;;;-4.46;76.45;99874.31;5056725;28;20892;-71
2021/01/31 02:50:04;;;;;;;5.73;4.33;;;;;;;-4.45;76.59;99869.13;5055961;28;20489;-71
2021/01/31 02:52:35;;;;;;;6.33;4.30;;;;;;;-4.37;75.94;99863.84;5055791;28;20408;-71
2021/01/31 02:55:04;;;;;;;5.63;3.97;;;;;;;-4.35;75.86;99859.50;5055434;28;20404;-71
2021/01/31 02:57:35;;;;;;;7.27;4.67;;;;;;;-4.38;75.91;99862.13;5056694;28;20428;-71
2021/01/31 03:00:13;;;;;;;6.57;4.80;;;;;;;-4.22;75.30;99855.03;5055709;28;20478;-72
2021/01/31 03:02:50;;;;;;;5.73;4.00;;;;;;;-4.30;75.62;99852.50;5055444;28;20400;-72
2021/01/31 03:05:21;;;;;;;7.53;4.43;;;;;;;-4.33;75.82;99849.06;5055784;28;20389;-71
2021/01/31 03:08:26;;;;;;;5.87;4.00;;;;;;;-4.39;76.10;99847.38;5038457;28;20436;-72
2021/01/31 03:11:15;;;;;;;6.80;4.27;;;;;;;-4.43;76.04;99843.94;5015341;28;20569;-72
2021/01/31 03:13:48;;;;;;;5.17;3.93;;;;;;;-4.46;76.17;99853.47;5052665;28;20428;-70
2021/01/31 03:16:20;;;;;;;8.57;4.77;;;;;;;-4.55;76.35;99859.63;5056515;28;20438;-71
2021/01/31 03:18:51;;;;;;;6.87;4.47;;;;;;;-4.56;76.59;99851.84;5055422;28;20889;-70
2021/01/31 03:21:23;;;;;;;7.73;4.07;;;;;;;-4.61;76.57;99853.59;5055431;28;20436;-70
2021/01/31 03:24:16;;;;;;;7.00;4.63;;;;;;;-4.44;76.09;99852.63;5056201;28;20397;-71
2021/01/31 03:26:46;;;;;;;7.40;4.50;;;;;;;-4.47;76.36;99850.00;5054914;28;20451;-70
2021/01/31 03:29:12;;;;;;;6.60;4.47;;;;;;;-4.54;76.18;99845.72;5038171;28;20956;-70
2021/01/31 03:31:40;;;;;;;7.40;4.33;;;;;;;-4.44;76.28;99857.84;5054821;28;20404;-70
2021/01/31 03:34:09;;;;;;;5.77;4.17;;;;;;;-4.48;76.03;99847.44;5054907;28;20168;-70
2021/01/31 03:36:37;;;;;;;6.80;4.50;;;;;;;-4.44;75.39;99852.63;5054573;28;20522;-70
2021/01/31 03:39:03;;;;;;;5.03;3.80;;;;;;;-4.46;75.44;99853.47;5054604;28;20421;-70
2021/01/31 03:41:29;;;;;;;8.20;4.30;;;;;;;-4.54;75.63;99860.50;5054874;28;20479;-71
2021/01/31 03:43:55;;;;;;;6.70;4.40;;;;;;;-4.53;75.38;99862.22;5055090;28;20445;-70
2021/01/31 03:46:31;;;;;;;5.40;4.20;;;;;;;-4.60;75.50;99866.63;5054760;28;20446;-71
2021/01/31 03:49:08;;;;;;;10.70;5.10;;;;;;;-4.64;75.53;99872.72;5055305;28;20178;-70
2021/01/31 03:51:34;;;;;;;7.40;4.73;;;;;;;-4.79;76.10;99871.09;5055653;28;20463;-71
2021/01/31 03:54:00;;;;;;;6.27;4.33;;;;;;;-4.88;76.40;99878.94;5054393;28;20916;-71
2021/01/31 03:56:28;;;;;;;7.77;4.77;;;;;;;-4.96;76.49;99864.25;5054347;28;20177;-71
2021/01/31 03:58:54;;;;;;;7.53;5.33;;;;;;;-4.98;76.86;99869.47;5054704;28;20182;-71
2021/01/31 04:01:21;;;;;;;6.97;4.90;;;;;;;-5.05;76.53;99870.38;5054127;28;20460;-71
2021/01/31 04:03:54;;;;;;;6.93;4.80;;;;;;;-5.00;76.69;99868.59;5054395;28;20413;-71
2021/01/31 04:06:22;;;;;;;9.07;5.63;;;;;;;-5.00;76.73;99866.00;5037765;28;20803;-72
2021/01/31 04:08:53;;;;;;;8.53;6.03;;;;;;;-5.07;77.08;99865.19;5054189;28;20424;-72
2021/01/31 04:11:33;;;;;;;6.20;4.83;;;;;;;-5.12;76.72;99871.28;5055426;28;20401;-71
2021/01/31 04:14:03;;;;;;;6.57;4.93;;;;;;;-5.21;77.04;99866.97;5055397;28;20446;-71
2021/01/31 04:16:32;;;;;;;6.83;4.57;;;;;;;-5.31;77.76;99864.41;5053682;28;20452;-71
2021/01/31 04:18:57;;;;;;;7.57;5.20;;;;;;;-5.32;77.69;99865.28;5054281;28;20424;-71
2021/01/31 04:21:23;;;;;;;7.03;4.97;;;;;;;-5.33;78.25;99861.81;5055011;28;20459;-72
2021/01/31 04:23:48;;;;;;;10.97;5.37;;;;;;;-5.35;78.07;99866.16;5055077;28;20178;-71
2021/01/31 04:26:13;;;;;;;6.73;4.60;;;;;;;-5.36;78.73;99864.44;5055043;28;20186;-72
2021/01/31 04:28:38;;;;;;;7.53;4.83;;;;;;;-5.42;78.86;99865.34;5055636;28;20172;-72
2021/01/31 04:31:04;;;;;;;6.80;5.13;;;;;;;-5.39;79.05;99856.66;5055281;28;20175;-72
2021/01/31 04:33:29;;;;;;;6.70;4.87;;;;;;;-5.42;79.11;99852.34;5055438;28;20658;-72
2021/01/31 04:35:54;;;;;;;7.57;4.47;;;;;;;-5.39;79.08;99857.50;5054975;28;20183;-72
2021/01/31 04:38:20;;;;;;;10.03;5.53;;;;;;;-5.38;79.15;99858.38;5055874;28;20195;-72
2021/01/31 04:40:45;;;;;;;8.30;5.23;;;;;;;-5.38;79.12;99843.63;5053532;28;20211;-72
2021/01/31 04:43:16;;;;;;;9.87;5.27;;;;;;;-5.39;79.18;99860.13;5053722;28;20629;-72
2021/01/31 04:45:41;;;;;;;8.17;5.70;;;;;;;-5.27;79.28;99856.59;5054081;28;20182;-72
2021/01/31 04:48:17;;;;;;;8.40;5.60;;;;;;;-5.24;78.84;99846.16;5052774;28;20883;-72
2021/01/31 04:51:06;;;;;;;9.40;5.47;;;;;;;-5.22;78.53;99862.63;5053622;28;20167;-72
2021/01/31 04:53:54;;;;;;;7.53;5.53;;;;;;;-5.21;78.74;99860.91;5053535;28;20471;-72
2021/01/31 04:56:23;;;;;;;9.30;5.77;;;;;;;-5.20;79.05;99862.66;5053472;28;20405;-72
2021/01/31 04:58:50;;;;;;;8.33;5.27;;;;;;;-5.20;78.96;99860.06;5054830;28;20440;-71
2021/01/31 05:01:20;;;;;;;9.23;5.87;;;;;;;-5.26;78.59;99849.66;5053463;28;20452;-72
2021/01/31 05:03:58;;;;;;;9.37;5.73;;;;;;;-5.31;79.08;99851.41;5054045;28;20447;-72
2021/01/31 05:06:25;;;;;;;7.17;4.97;;;;;;;-5.37;78.97;99860.97;5052931;28;20428;-72
2021/01/31 05:08:50;;;;;;;9.07;5.40;;;;;;;-5.42;79.41;99856.66;5053660;28;20419;-72
2021/01/31 05:11:28;;;;;;;8.77;5.57;;;;;;;-5.38;79.02;99859.25;5053254;28;20413;-72
2021/01/31 05:14:14;;;;;;;8.57;6.07;;;;;;;-5.41;78.73;99861.88;5036278;28;20182;-71
2021/01/31 05:16:40;;;;;;;10.37;6.30;;;;;;;-5.41;78.63;99858.41;5036326;28;20499;-72
2021/01/31 05:19:12;;;;;;;8.67;5.37;;;;;;;-5.42;78.53;99862.72;5053365;28;20798;-72
2021/01/31 05:21:37;;;;;;;10.47;6.97;;;;;;;-5.51;79.04;99873.19;5053109;28;20646;-71
2021/01/31 05:24:09;;;;;;;8.10;5.53;;;;;;;-5.51;78.88;99862.78;5053284;28;20404;-72
2021/01/31 05:26:39;;;;;;;10.70;5.73;;;;;;;-5.55;78.96;99874.06;5052451;28;20199;-72
2021/01/31 05:29:22;;;;;;;9.87;6.53;;;;;;;-5.52;78.76;99868.84;5053067;28;20404;-72
2021/01/31 05:32:17;;;;;;;9.07;5.43;;;;;;;-5.54;78.08;99860.19;5053915;28;20396;-72
2021/01/31 05:34:49;;;;;;;9.83;5.83;;;;;;;-5.52;78.28;99876.66;5040082;28;20444;-72
2021/01/31 05:37:26;;;;;;;8.27;5.83;;;;;;;-5.55;78.74;99863.66;5052542;28;20805;-72
2021/01/31 05:40:00;;;;;;;12.27;5.83;;;;;;;-5.58;78.77;99870.56;5035635;28;20495;-72
2021/01/31 05:42:28;;;;;;;9.47;5.90;;;;;;;-5.57;79.03;99868.00;5052440;28;20785;-72
2021/01/31 05:44:58;;;;;;;9.47;5.63;;;;;;;-5.65;79.10;99869.72;5052393;28;20412;-72
2021/01/31 05:47:25;;;;;;;7.63;5.23;;;;;;;-5.63;79.31;99865.38;5074651;22;20992;-72
2021/01/31 05:49:53;;;;;;;8.47;5.60;;;;;;;-5.61;79.47;99865.38;5052421;28;20419;-72
2021/01/31 05:52:18;;;;;;;9.50;6.37;;;;;;;-5.66;79.50;99871.47;5035523;28;20423;-72
2021/01/31 05:54:43;;;;;;;9.37;5.53;;;;;;;-5.74;nan;99874.97;5053752;28;20503;-72
2021/01/31 05:57:25;;;;;;;7.73;5.50;;;;;;;-5.76;79.80;99868.91;5053088;28;20195;-72
2021/01/31 05:59:50;;;;;;;9.53;5.80;;;;;;;-5.83;79.99;99870.66;5051771;28;20543;-72
2021/01/31 06:02:36;;;;;;;11.47;6.43;;;;;;;-5.84;80.01;99879.31;5051893;28;20429;-72
2021/01/31 06:05:28;;;;;;;9.80;6.10;;;;;;;-5.84;80.27;99881.06;5051573;28;20199;-72
2021/01/31 06:08:06;;;;;;;8.37;5.90;;;;;;;-5.84;80.52;99881.06;5049464;28;20469;-73
2021/01/31 06:10:35;;;;;;;11.07;6.23;;;;;;;-5.85;80.05;99875.00;5035554;28;20943;-72
2021/01/31 06:13:19;;;;;;;10.00;6.53;;;;;;;-5.83;79.58;99881.06;5055772;28;20416;-72
2021/01/31 06:15:52;;;;;;;11.13;5.97;;;;;;;-5.91;79.72;99885.44;5052265;28;20416;-72
2021/01/31 06:18:40;;;;;;;10.37;6.13;;;;;;;-5.94;80.00;99885.44;5036074;28;20439;-72
2021/01/31 06:21:14;;;;;;;9.90;5.90;;;;;;;-5.93;79.92;99891.50;5069770;28;20452;-71
2021/01/31 06:23:51;;;;;;;9.43;6.03;;;;;;;-5.98;79.72;99896.69;5055475;28;20429;-72
2021/01/31 06:26:39;;;;;;;9.60;6.73;;;;;;;-6.04;79.92;99901.88;5052224;28;20514;-72
2021/01/31 06:29:10;;;;;;;10.73;6.53;;;;;;;-5.97;79.69;99892.34;5035790;28;20470;-73
2021/01/31 06:31:42;;;;;;;10.07;6.50;;;;;;;-5.91;80.40;99897.56;5035419;28;20955;-72
2021/01/31 06:34:09;;;;;;;10.50;6.83;;;;;;;-5.77;79.80;99890.56;5053803;28;20415;-72
2021/01/31 06:36:42;;;;;;;11.37;6.73;;;;;;;-5.85;79.76;99892.31;5052680;28;20420;-72
2021/01/31 06:39:17;;;;;;;10.43;6.70;;;;;;;-5.87;80.54;99883.66;5052239;28;20403;-72
2021/01/31 06:41:56;;;;;;;10.90;7.23;;;;;;;-5.81;80.16;99887.13;5051878;28;20462;-71
2021/01/31 06:44:34;;;;;;;12.07;7.43;;;;;;;-5.78;80.53;99883.63;5053703;28;20726;-72
2021/01/31 06:47:11;;;;;;;13.27;7.93;;;;;;;-5.85;80.99;99881.94;5052177;28;20468;-72
2021/01/31 06:50:07;;;;;;;12.03;7.50;;;;;;;-5.73;81.19;99874.97;5052589;28;20757;-72
2021/01/31 06:52:39;;;;;;;11.57;7.27;;;;;;;-5.80;81.53;99874.97;5052527;28;20413;-72
2021/01/31 06:55:23;;;;;;;13.33;7.80;;;;;;;-5.87;81.31;99881.94;5052033;28;20813;-72
2021/01/31 06:58:04;;;;;;;15.10;8.07;;;;;;;-5.75;81.08;99886.22;5052322;28;20522;-71
2021/01/31 07:00:41;;;;;;;13.73;7.33;;;;;;;-5.74;81.31;99880.16;5051863;28;20440;-72
2021/01/31 07:03:23;;;;;;;10.57;7.10;;;;;;;-5.69;81.10;99879.28;5052272;28;20411;-72
2021/01/31 07:06:02;;;;;;;14.83;7.30;;;;;;;-5.67;81.00;99887.06;5051671;28;20805;-71
2021/01/31 07:09:07;;;;;;;13.10;7.73;;;;;;;-5.70;81.07;99887.94;5051509;28;20489;-73
2021/01/31 07:11:46;;;;;;;12.40;7.47;;;;;;;-5.62;81.00;99874.06;5044647;28;20416;-71
2021/01/31 07:14:35;;;;;;;12.17;6.87;;;;;;;-5.56;80.13;99874.94;5055583;28;20848;-72
2021/01/31 07:17:12;;;;;;;11.47;7.60;;;;;;;-5.41;79.19;99872.25;5055334;28;20558;-71
2021/01/31 07:19:46;;;;;;;14.77;7.80;;;;;;;-5.43;79.26;99887.00;5056644;28;20445;-71
2021/01/31 07:22:16;;;;;;;11.93;7.10;;;;;;;-5.42;79.35;99880.94;5055565;28;20392;-71
2021/01/31 07:24:52;;;;;;;12.07;6.80;;;;;;;-5.13;78.40;99885.16;5038760;28;20459;-71
2021/01/31 07:27:34;;;;;;;12.13;7.47;;;;;;;-4.96;77.52;99887.66;5039166;28;20442;-72
2021/01/31 07:30:08;;;;;;;10.13;6.53;;;;;;;-4.82;77.04;99876.31;5055813;28;20405;-73
2021/01/31 07:32:48;;;;;;;13.40;6.80;;;;;;;-4.77;76.27;99876.28;5055310;28;20761;-72
2021/01/31 07:35:17;;;;;;;10.10;6.70;;;;;;;-4.81;75.87;99875.44;5055364;28;20800;-74
2021/01/31 07:37:46;;;;;;;13.63;6.57;;;;;;;-4.63;75.24;99869.25;5055014;28;20979;-73
2021/01/31 07:40:17;;;;;;;9.63;7.10;;;;;;;-4.64;74.60;99874.47;5055041;28;20460;-73
2021/01/31 07:42:43;;;;;;;9.50;6.17;;;;;;;-4.56;74.76;99870.94;5055300;28;20389;-72
2021/01/31 07:45:20;;;;;;;9.73;5.93;;;;;;;-4.32;73.71;99876.84;5054747;28;20801;-72
2021/01/31 07:47:46;;;;;;;9.97;6.40;;;;;;;-4.34;73.42;99882.06;5054728;28;20482;-73
2021/01/31 07:50:21;;;;;;;10.83;6.40;;;;;;;-4.23;73.10;99876.75;5055022;28;20772;-73
2021/01/31 07:52:55;;;;;;;7.93;5.30;;;;;;;-4.18;72.90;99896.69;5054915;28;20477;-72
2021/01/31 07:55:30;;;;;;;12.00;6.13;;;;;;;-4.14;72.71;99897.53;5055134;28;20405;-72
2021/01/31 07:58:17;;;;;;;9.07;5.30;;;;;;;-4.12;72.54;99907.06;5054882;28;20956;-72
2021/01/31 08:00:44;;;;;;;8.83;5.80;;;;;;;-4.02;71.68;99899.19;5054618;28;20437;-73
2021/01/31 08:03:27;;;;;;;8.87;5.90;;;;;;;-3.98;71.69;99895.66;5055609;28;20467;-73
2021/01/31 08:06:10;;;;;;;9.10;5.57;;;;;;;-3.93;71.04;99896.47;5057101;28;20496;-73
2021/01/31 08:08:36;;;;;;;9.07;5.10;;;;;;;-3.96;71.93;99901.72;5055995;28;20438;-73
2021/01/31 08:11:03;;;;;;;10.03;5.47;;;;;;;-3.99;71.27;99892.19;5055804;28;20410;-73
2021/01/31 08:13:42;;;;;;;8.33;5.60;;;;;;;-3.95;71.63;99898.25;5054393;28;20501;-73
2021/01/31 08:16:47;;;;;;;10.60;5.23;;;;;;;-3.86;71.44;99895.53;5055629;28;20819;-72
2021/01/31 08:19:12;;;;;;;8.90;5.70;;;;;;;-3.81;71.48;99901.56;5055944;28;20425;-72
2021/01/31 08:21:54;;;;;;;9.10;5.77;;;;;;;-3.80;71.09;99898.94;5054349;28;20492;-73
2021/01/31 08:24:57;;;;;;;11.73;6.20;;;;;;;-3.84;71.12;99896.38;5054861;28;20171;-74
2021/01/31 08:27:44;;;;;;;7.63;5.90;;;;;;;-3.79;71.53;99895.47;5054161;28;20527;-73
2021/01/31 08:30:20;;;;;;;10.33;6.33;;;;;;;-3.64;70.60;99896.22;5055934;28;20434;-74
2021/01/31 08:32:58;;;;;;;8.90;6.10;;;;;;;-3.56;70.39;99900.47;5054209;28;20423;-73
2021/01/31 08:35:26;;;;;;;8.57;5.53;;;;;;;-3.54;70.56;99898.69;5053756;28;20429;-73
2021/01/31 08:38:11;;;;;;;10.37;6.80;;;;;;;-3.55;70.57;99891.75;5053950;28;20437;-73
2021/01/31 08:40:36;;;;;;;8.03;5.50;;;;;;;-3.50;70.28;99909.97;5054350;28;20924;-73
2021/01/31 08:43:02;;;;;;;11.57;7.30;;;;;;;-3.40;70.17;99895.94;5054634;28;20416;-73
2021/01/31 08:45:41;;;;;;;8.93;5.73;;;;;;;-3.39;69.84;99902.88;5054402;28;20181;-73
2021/01/31 08:48:06;;;;;;;8.30;5.37;;;;;;;-3.36;69.90;99904.59;5037181;28;20228;-74
2021/01/31 08:50:32;;;;;;;7.27;4.83;;;;;;;-3.32;69.65;99903.69;5054660;28;20409;-73
2021/01/31 08:53:02;;;;;;;7.53;4.80;;;;;;;-3.18;69.14;99896.56;5053949;28;20178;-73
2021/01/31 08:55:28;;;;;;;8.23;5.27;;;;;;;-3.24;69.34;99894.88;5054280;28;20171;-74
2021/01/31 08:57:58;;;;;;;9.03;5.50;;;;;;;-3.29;69.64;99898.44;5054229;28;20476;-74
2021/01/31 09:00:25;;;;;;;7.67;4.90;;;;;;;-3.12;69.14;99908.66;5054189;28;20549;-72
2021/01/31 09:02:51;;;;;;;7.87;5.43;;;;;;;-3.05;68.52;99905.09;5055955;28;20430;-73
2021/01/31 09:05:18;;;;;;;8.37;5.23;;;;;;;-3.13;69.25;99902.56;5054943;28;20780;-73
2021/01/31 09:08:00;;;;;;;7.90;5.00;;;;;;;-3.00;69.04;99905.88;5055121;28;20723;-73
2021/01/31 09:10:35;;;;;;;6.47;4.67;;;;;;;-2.93;68.76;99907.56;5053840;28;20393;-72
2021/01/31 09:13:12;;;;;;;7.70;5.03;;;;;;;-2.96;68.93;99903.25;5036824;28;20415;-72
2021/01/31 09:15:38;;;;;;;7.17;4.53;;;;;;;-2.77;67.60;99903.00;5036929;28;20410;-73
2021/01/31 09:18:09;;;;;;;8.17;5.27;;;;;;;-2.89;68.25;99899.66;5036597;28;20494;-72
2021/01/31 09:20:35;;;;;;;7.17;4.90;;;;;;;-2.73;67.62;99912.50;5055873;28;20556;-73
2021/01/31 09:23:08;;;;;;;8.20;4.93;;;;;;;-2.75;67.99;99911.66;5055116;28;20429;-73
2021/01/31 09:25:35;;;;;;;6.73;4.90;;;;;;;-2.60;67.22;99911.47;5068996;28;20201;-73
2021/01/31 09:28:20;;;;;;;8.67;4.93;;;;;;;-2.64;67.47;99914.97;5070884;28;20443;-74
2021/01/31 09:30:46;;;;;;;6.80;4.67;;;;;;;-2.56;67.44;99918.38;5058427;28;20405;-74
2021/01/31 09:33:28;;;;;;;8.10;4.50;;;;;;;-2.62;68.11;99915.81;5055823;28;20428;-73
2021/01/31 09:35:53;;;;;;;6.30;4.67;;;;;;;-2.36;67.03;99921.53;5054849;28;20162;-73
2021/01/31 09:38:28;;;;;;;8.37;4.77;;;;;;;-2.27;66.69;99920.53;5055767;28;21004;-73
2021/01/31 09:40:58;;;;;;;6.97;4.90;;;;;;;-2.25;66.33;99918.75;5053538;28;20685;-73
2021/01/31 09:43:26;;;;;;;7.73;5.30;;;;;;;-2.28;66.86;99922.28;5054889;28;20400;-74
2021/01/31 09:45:54;;;;;;;8.87;5.30;;;;;;;-2.30;67.24;99920.59;5055688;28;20908;-74
2021/01/31 09:48:23;;;;;;;7.90;4.83;;;;;;;-2.11;66.13;99922.03;5055865;28;20445;-74
2021/01/31 09:50:53;;;;;;;8.13;5.27;;;;;;;-2.02;66.36;99934.09;5055783;28;20413;-74
2021/01/31 09:53:37;;;;;;;7.23;5.10;;;;;;;-2.00;66.40;99920.09;5054811;28;20411;-73
2021/01/31 09:56:05;;;;;;;6.83;5.30;;;;;;;-1.84;65.50;99933.81;5054679;28;20402;-73
2021/01/31 09:58:45;;;;;;;10.47;6.13;;;;;;;-1.70;65.20;99921.34;5054014;28;20490;-74
2021/01/31 10:01:14;;;;;;;7.80;5.30;;;;;;;-1.65;65.17;99922.13;5054805;28;20455;-73
2021/01/31 10:03:40;;;;;;;9.33;5.80;;;;;;;-1.70;65.82;99926.59;5053645;28;20443;-73
2021/01/31 10:06:11;;;;;;;8.93;5.60;;;;;;;-1.67;66.11;99926.53;5054209;28;20422;-73
2021/01/31 10:08:40;;;;;;;8.30;5.50;;;;;;;-1.74;66.42;99929.28;5036978;28;20202;-74
2021/01/31 10:11:24;;;;;;;7.80;5.70;;;;;;;-1.46;65.53;99935.75;5053614;28;20414;-72
2021/01/31 10:13:49;;;;;;;9.27;6.53;;;;;;;-1.24;64.73;99935.34;5053483;28;20455;-73
2021/01/31 10:16:18;;;;;;;8.83;6.00;;;;;;;-1.13;64.30;99931.59;5053921;28;20420;-72
2021/01/31 10:18:43;;;;;;;9.60;7.07;;;;;;;-1.01;63.92;99920.91;5055730;28;20271;-74
2021/01/31 10:21:17;;;;;;;10.47;7.70;;;;;;;-0.97;63.91;99927.81;5057329;28;20448;-73
2021/01/31 10:23:44;;;;;;;9.63;6.70;;;;;;;-1.03;64.32;99925.31;5039106;28;20190;-75
2021/01/31 10:26:14;;;;;;;10.00;6.87;;;;;;;-1.18;64.35;99941.31;5056107;28;20424;-75
2021/01/31 10:28:56;;;;;;;10.67;6.97;;;;;;;-1.38;64.80;99933.84;5056253;28;20455;-74
2021/01/31 10:31:24;;;;;;;11.63;6.70;;;;;;;-1.46;64.95;99925.28;5055048;28;21033;-73
2021/01/31 10:33:51;;;;;;;9.07;6.33;;;;;;;-1.46;65.01;99932.28;5055190;28;20449;-73
2021/01/31 10:36:25;;;;;;;8.43;6.63;;;;;;;-1.46;65.59;99922.66;5056334;28;20176;-74
2021/01/31 10:38:56;;;;;;;8.57;6.23;;;;;;;-1.53;65.47;99928.03;5055339;28;20416;-75
2021/01/31 10:41:21;;;;;;;10.30;7.10;;;;;;;-1.61;65.88;99920.31;5054196;28;20444;-74
2021/01/31 10:44:03;;;;;;;16.17;9.73;;;;;;;-1.71;65.85;99930.09;5054754;28;20409;-73
2021/01/31 10:46:31;;;;;;;12.33;7.17;;;;;;;-1.64;65.53;99926.47;5053898;28;20298;-74
2021/01/31 10:48:57;;;;;;;10.53;7.07;;;;;;;-1.62;65.93;99919.44;5058090;28;20498;-74
2021/01/31 10:51:24;;;;;;;11.00;7.07;;;;;;;-1.55;65.69;99919.34;5056765;28;20493;-74
2021/01/31 10:53:49;;;;;;;9.13;6.23;;;;;;;-1.54;65.27;99919.31;5057000;28;20578;-73
2021/01/31 10:56:14;;;;;;;9.63;6.07;;;;;;;-1.31;64.12;99917.13;5057682;28;20472;-73
2021/01/31 10:58:40;;;;;;;8.90;6.53;;;;;;;-1.04;62.93;99909.63;5056271;28;20195;-73
2021/01/31 11:01:05;;;;;;;9.13;6.80;;;;;;;-0.93;62.54;99912.88;5056257;28;20206;-74
2021/01/31 11:03:30;;;;;;;10.50;6.77;;;;;;;-0.98;62.71;99909.50;5057861;28;20222;-74
2021/01/31 11:05:56;;;;;;;9.70;6.87;;;;;;;-0.71;62.01;99905.44;5056107;28;20616;-73
2021/01/31 11:08:21;;;;;;;10.13;6.40;;;;;;;-0.49;61.27;99896.19;5056324;28;20200;-73
2021/01/31 11:10:48;;;;;;;7.70;5.93;;;;;;;-0.81;62.76;99906.50;5056285;28;20186;-74
2021/01/31 11:13:13;;;;;;;9.40;5.73;;;;;;;-0.77;61.72;99910.78;5039525;28;20180;-73
2021/01/31 11:15:38;;;;;;;8.90;6.00;;;;;;;-0.93;62.16;99898.94;5055996;28;20179;-73
2021/01/31 11:18:04;;;;;;;8.73;5.67;;;;;;;-0.99;62.25;99898.16;5056424;28;20203;-73
2021/01/31 11:20:29;;;;;;;7.53;4.97;;;;;;;-0.91;61.59;99908.47;5057683;28;20207;-74
2021/01/31 11:22:54;;;;;;;8.57;5.13;;;;;;;-0.93;61.64;99904.16;5056422;28;20182;-72
2021/01/31 11:25:20;;;;;;;7.10;5.07;;;;;;;-0.82;61.60;99903.03;5057593;28;20273;-73
2021/01/31 11:27:45;;;;;;;7.87;5.27;;;;;;;-0.56;60.91;99914.72;5057894;28;20270;-73
2021/01/31 11:30:11;;;;;;;7.47;5.03;;;;;;;-0.35;59.72;99903.75;5056338;28;20168;-74
2021/01/31 11:32:36;;;;;;;6.17;4.37;;;;;;;-0.11;58.26;99912.78;5057275;28;20180;-74
2021/01/31 11:35:02;;;;;;;7.03;4.83;;;;;;;0.50;56.97;99921.75;5057587;28;20649;-74
2021/01/31 11:37:28;;;;;;;6.63;4.40;;;;;;;0.99;56.02;99894.13;5057865;28;20202;-73
2021/01/31 11:39:53;;;;;;;6.37;4.80;;;;;;;1.66;53.04;99908.75;5056919;28;20249;-73
2021/01/31 11:42:18;;;;;;;7.57;4.70;;;;;;;1.00;55.41;99901.97;5039074;28;20198;-73
2021/01/31 11:44:44;;;;;;;6.60;5.00;;;;;;;0.21;56.91;99891.88;5055314;28;20175;-75
2021/01/31 11:49:40;;;;;;;11.10;4.93;;;;;;;0.33;57.37;99895.94;5055681;28;20203;-71
2021/01/31 11:52:06;;;;;;;7.30;4.80;;;;;;;0.40;56.94;99894.91;5056659;28;20172;-70
2021/01/31 11:54:31;;;;;;;8.03;4.70;;;;;;;0.37;56.81;99896.72;5057116;28;20226;-70